Time;durP1;ratioP1;P1;durP2;ratioP2;P2;SDS_P1;SDS_P2;PMS_P1;PMS_P2;Temp;Humidity;BMP_temperature;BMP_pressure;BME280_temperature;BME280_humidity;BME280_pressure;Samples;Min_cycle;Max_cycle;Signal;HPM_P1;HPM_P2
2021/06/08 00:02:19;;;;;;;14.03;9.47;;;17.80;99.90;;;;;;5013430;28;20301;-77
2021/06/08 00:04:46;;;;;;;11.83;9.57;;;17.80;99.90;;;;;;4995363;28;20216;-77
2021/06/08 00:07:13;;;;;;;12.63;8.70;;;17.80;99.90;;;;;;4993003;28;20228;-77
2021/06/08 00:09:40;;;;;;;12.50;9.30;;;17.80;99.90;;;;;;4994040;28;20195;-77
2021/06/08 00:12:08;;;;;;;12.47;8.57;;;17.80;99.90;;;;;;5014546;28;20203;-77
2021/06/08 00:14:35;;;;;;;13.73;9.30;;;17.90;99.90;;;;;;5015230;28;20217;-78
2021/06/08 00:17:03;;;;;;;11.13;9.37;;;17.90;99.90;;;;;;5015849;28;20273;-78
2021/06/08 00:19:30;;;;;;;13.63;8.87;;;17.80;99.90;;;;;;5032891;28;20279;-78
2021/06/08 00:21:57;;;;;;;15.73;8.63;;;17.70;99.90;;;;;;4997092;28;20239;-75
2021/06/08 00:24:24;;;;;;;11.33;9.07;;;17.60;99.90;;;;;;4997609;28;20203;-75
2021/06/08 00:26:51;;;;;;;14.10;8.80;;;17.70;99.90;;;;;;4999672;28;20492;-77
2021/06/08 00:29:18;;;;;;;12.63;8.70;;;17.70;99.90;;;;;;5013015;28;20633;-75
2021/06/08 00:31:45;;;;;;;13.30;8.17;;;17.70;99.90;;;;;;5000443;28;20283;-75
2021/06/08 00:34:12;;;;;;;11.87;8.50;;;17.70;99.90;;;;;;4999349;28;20210;-75
2021/06/08 00:36:38;;;;;;;10.93;8.33;;;17.70;99.90;;;;;;4984401;28;20270;-75
2021/06/08 00:39:05;;;;;;;10.17;8.03;;;17.70;99.90;;;;;;5011642;28;20242;-75
2021/06/08 00:41:42;;;;;;;11.07;8.13;;;17.70;99.90;;;;;;5014589;28;20221;-75
2021/06/08 00:44:16;;;;;;;11.67;7.70;;;17.60;99.90;;;;;;5009732;28;20307;-76
2021/06/08 00:46:47;;;;;;;10.77;7.97;;;17.60;99.90;;;;;;5007632;28;20201;-77
2021/06/08 00:49:16;;;;;;;11.17;8.10;;;17.60;99.90;;;;;;5025842;28;20303;-76
2021/06/08 00:51:43;;;;;;;10.80;7.87;;;17.60;99.90;;;;;;5012653;28;20277;-76
2021/06/08 00:54:10;;;;;;;8.33;7.27;;;17.70;99.90;;;;;;5013781;28;20929;-76
2021/06/08 00:56:40;;;;;;;10.17;7.20;;;17.60;99.90;;;;;;4991699;28;20307;-77
2021/06/08 00:59:07;;;;;;;8.80;7.47;;;17.60;99.90;;;;;;5031210;28;20208;-76
2021/06/08 01:01:35;;;;;;;10.10;8.17;;;17.70;99.90;;;;;;5000246;28;20205;-76
2021/06/08 01:04:04;;;;;;;10.47;7.43;;;17.60;99.90;;;;;;5010905;28;20668;-76
2021/06/08 01:06:32;;;;;;;10.57;7.37;;;17.60;99.90;;;;;;5004721;28;20254;-75
2021/06/08 01:09:00;;;;;;;8.47;6.93;;;17.50;99.90;;;;;;4995682;28;20229;-77
2021/06/08 01:11:27;;;;;;;8.17;6.60;;;17.60;99.90;;;;;;5009006;28;20199;-76
2021/06/08 01:13:54;;;;;;;7.67;6.90;;;17.60;99.90;;;;;;5028703;28;20265;-77
2021/06/08 01:16:21;;;;;;;10.27;6.97;;;17.50;99.90;;;;;;5002605;28;20211;-76
2021/06/08 01:18:49;;;;;;;8.53;6.63;;;17.50;99.90;;;;;;5012038;28;20231;-76
2021/06/08 01:21:16;;;;;;;7.97;6.30;;;17.40;99.90;;;;;;4998776;28;20232;-77
2021/06/08 01:23:44;;;;;;;8.60;6.37;;;17.40;99.90;;;;;;5028622;28;20287;-76
2021/06/08 01:26:11;;;;;;;7.77;6.30;;;17.40;99.90;;;;;;4992869;28;20225;-76
2021/06/08 01:28:39;;;;;;;7.70;5.93;;;17.40;99.90;;;;;;4997009;28;20235;-76
2021/06/08 01:31:16;;;;;;;9.60;6.30;;;17.40;99.90;;;;;;5006398;28;20313;-76
2021/06/08 01:33:45;;;;;;;7.93;5.80;;;17.30;1.00;;;;;;5013880;28;20676;-76
2021/06/08 01:36:15;;;;;;;8.23;5.87;;;17.40;99.90;;;;;;5010369;28;20204;-76
2021/06/08 01:38:43;;;;;;;9.50;6.30;;;17.40;1.00;;;;;;5008557;28;20204;-76
2021/06/08 01:41:14;;;;;;;7.23;5.97;;;17.40;99.90;;;;;;5028950;28;20234;-76
2021/06/08 01:43:43;;;;;;;8.57;5.00;;;17.30;99.90;;;;;;5009698;28;20244;-75
2021/06/08 01:46:11;;;;;;;7.60;6.23;;;17.30;99.90;;;;;;4997134;28;20238;-76
2021/06/08 01:48:38;;;;;;;6.67;5.73;;;17.40;99.90;;;;;;4999501;28;20234;-75
2021/06/08 01:51:20;;;;;;;8.13;6.13;;;17.40;99.90;;;;;;5010945;28;20622;-75
2021/06/08 01:53:53;;;;;;;6.60;5.47;;;17.40;1.00;;;;;;5010092;28;20197;-75
2021/06/08 01:56:23;;;;;;;9.57;6.17;;;17.40;1.00;;;;;;5022361;28;20267;-75
2021/06/08 01:58:52;;;;;;;6.60;5.40;;;17.30;1.00;;;;;;5025843;28;20292;-76
2021/06/08 02:01:24;;;;;;;6.30;5.43;;;17.30;1.00;;;;;;5013163;28;20228;-77
2021/06/08 02:04:21;;;;;;;8.17;5.47;;;17.30;99.90;;;;;;5009743;28;20212;-76
2021/06/08 02:06:59;;;;;;;8.37;5.23;;;17.30;99.90;;;;;;5010147;28;20197;-76
2021/06/08 02:09:37;;;;;;;5.23;4.73;;;17.30;99.90;;;;;;5029767;28;20282;-76
2021/06/08 02:12:11;;;;;;;6.63;5.33;;;17.20;99.90;;;;;;5016149;28;20254;-76
2021/06/08 02:14:59;;;;;;;7.27;5.57;;;17.20;1.00;;;;;;5027470;28;20611;-76
2021/06/08 02:17:38;;;;;;;6.70;5.40;;;17.10;1.00;;;;;;5009507;28;20243;-77
2021/06/08 02:20:27;;;;;;;6.40;5.30;;;17.10;1.00;;;;;;5018414;28;20602;-76
2021/06/08 02:22:59;;;;;;;6.20;5.23;;;17.10;99.90;;;;;;5009327;28;20201;-77
2021/06/08 02:25:28;;;;;;;6.57;5.33;;;17.00;99.90;;;;;;5027573;28;20255;-76
2021/06/08 02:27:59;;;;;;;8.47;5.57;;;17.00;99.90;;;;;;4995600;28;20317;-78
2021/06/08 02:30:27;;;;;;;5.83;5.27;;;17.00;99.90;;;;;;5012769;28;20996;-76
2021/06/08 02:32:55;;;;;;;7.57;5.53;;;17.00;99.90;;;;;;5010758;28;20202;-77
2021/06/08 02:35:23;;;;;;;6.07;5.23;;;16.90;99.90;;;;;;5010481;28;20574;-77
2021/06/08 02:37:51;;;;;;;7.63;5.50;;;16.90;1.00;;;;;;4995321;28;20266;-77
2021/06/08 02:40:18;;;;;;;7.10;5.17;;;16.90;99.90;;;;;;5009198;28;20203;-77
2021/06/08 02:42:46;;;;;;;7.73;5.40;;;17.00;1.00;;;;;;4995148;28;20198;-76
2021/06/08 02:45:13;;;;;;;6.40;5.10;;;16.90;1.00;;;;;;4985644;28;20212;-77
2021/06/08 02:47:43;;;;;;;6.73;5.03;;;16.90;79.00;;;;;;5014437;28;20269;-76
2021/06/08 02:50:13;;;;;;;5.83;4.73;;;16.80;1.00;;;;;;5019211;28;20208;-76
2021/06/08 02:52:40;;;;;;;6.47;5.40;;;16.80;99.90;;;;;;5011842;28;20250;-76
2021/06/08 02:55:08;;;;;;;5.80;4.90;;;16.80;1.00;;;;;;4993856;28;20297;-77
2021/06/08 02:57:36;;;;;;;5.13;4.57;;;16.70;1.00;;;;;;4999735;28;20215;-76
2021/06/08 03:00:07;;;;;;;7.30;5.30;;;16.70;1.00;;;;;;5014983;28;20259;-77
2021/06/08 03:02:37;;;;;;;6.43;5.10;;;16.80;1.00;;;;;;5036067;28;20691;-76
2021/06/08 03:05:09;;;;;;;7.33;5.03;;;16.80;99.90;;;;;;5031462;28;21613;-76
2021/06/08 03:07:38;;;;;;;9.73;5.00;;;16.80;99.90;;;;;;5019101;28;20207;-76
2021/06/08 03:10:10;;;;;;;6.10;5.00;;;16.70;1.00;;;;;;5012351;28;20294;-77
2021/06/08 03:12:52;;;;;;;5.63;4.57;;;16.70;1.00;;;;;;5011750;28;20293;-77
2021/06/08 03:15:40;;;;;;;5.73;5.13;;;16.70;1.00;;;;;;5007315;28;20214;-76
2021/06/08 03:18:10;;;;;;;6.40;5.00;;;16.70;99.90;;;;;;5014263;28;20227;-76
2021/06/08 03:21:21;;;;;;;5.93;4.93;;;16.60;99.90;;;;;;5029566;28;20375;-75
2021/06/08 03:23:52;;;;;;;5.27;4.57;;;16.60;99.90;;;;;;4936054;29;20698;-75
2021/06/08 03:26:21;;;;;;;7.50;4.87;;;16.60;99.90;;;;;;4934049;28;20356;-76
2021/06/08 03:28:51;;;;;;;9.80;5.23;;;16.50;99.90;;;;;;4947159;28;20745;-76
2021/06/08 03:31:20;;;;;;;5.43;4.80;;;16.50;1.00;;;;;;4953425;28;20281;-76
2021/06/08 03:33:49;;;;;;;5.73;5.13;;;16.60;1.00;;;;;;4930972;29;20211;-76
2021/06/08 03:36:17;;;;;;;6.50;4.63;;;16.40;99.90;;;;;;4950317;28;20223;-76
2021/06/08 03:38:45;;;;;;;5.27;4.43;;;16.50;99.90;;;;;;4947905;28;20222;-77
2021/06/08 03:41:13;;;;;;;7.63;5.20;;;16.50;99.90;;;;;;4944909;28;20294;-77
2021/06/08 03:43:40;;;;;;;6.20;4.70;;;16.50;99.90;;;;;;4916997;29;20343;-76
2021/06/08 03:46:07;;;;;;;7.30;5.67;;;16.50;99.90;;;;;;4949007;28;20211;-75
2021/06/08 03:48:34;;;;;;;8.03;5.40;;;16.40;99.90;;;;;;4919555;28;20230;-76
2021/06/08 03:51:02;;;;;;;6.37;4.90;;;16.40;99.90;;;;;;4934074;28;20237;-76
2021/06/08 03:53:29;;;;;;;8.77;5.47;;;16.30;99.90;;;;;;4922587;28;20258;-76
2021/06/08 03:55:56;;;;;;;6.47;5.57;;;16.20;99.90;;;;;;4994408;28;20196;-77
2021/06/08 03:58:24;;;;;;;7.07;5.03;;;16.30;99.90;;;;;;5029950;28;20223;-76
2021/06/08 04:00:55;;;;;;;6.07;4.93;;;16.30;99.90;;;;;;4999881;28;20243;-77
2021/06/08 04:03:23;;;;;;;10.23;5.03;;;16.20;99.90;;;;;;5016378;28;20225;-76
2021/06/08 04:05:53;;;;;;;7.43;5.47;;;16.20;99.90;;;;;;5012792;28;20653;-76
2021/06/08 04:08:21;;;;;;;6.30;4.87;;;16.30;99.90;;;;;;4999064;28;20211;-77
2021/06/08 04:10:49;;;;;;;7.37;5.23;;;16.30;99.90;;;;;;5017568;28;20201;-76
2021/06/08 04:13:17;;;;;;;7.43;4.93;;;16.30;99.90;;;;;;5024174;28;20208;-76
2021/06/08 04:15:44;;;;;;;6.83;5.30;;;16.30;99.90;;;;;;5027185;28;20274;-75
2021/06/08 04:18:12;;;;;;;6.50;5.53;;;16.20;99.90;;;;;;5016138;28;20840;-75
2021/06/08 04:20:39;;;;;;;7.47;5.40;;;16.20;99.90;;;;;;4998695;28;20316;-77
2021/06/08 04:23:06;;;;;;;7.33;5.80;;;16.30;99.90;;;;;;5011365;28;20744;-76
2021/06/08 04:25:33;;;;;;;7.87;5.77;;;16.30;99.90;;;;;;5015858;28;20232;-78
2021/06/08 04:28:02;;;;;;;8.47;5.63;;;16.30;99.90;;;;;;4998589;28;20211;-77
2021/06/08 04:30:29;;;;;;;7.30;5.63;;;16.30;99.90;;;;;;5014596;28;20694;-78
2021/06/08 04:32:56;;;;;;;8.80;5.60;;;16.40;99.90;;;;;;5018578;28;20200;-78
2021/06/08 04:35:23;;;;;;;8.67;6.00;;;16.40;99.90;;;;;;4997757;28;20188;-77
2021/06/08 04:37:51;;;;;;;8.50;6.07;;;16.40;99.90;;;;;;5011514;28;20214;-77
2021/06/08 04:40:17;;;;;;;9.33;5.77;;;16.40;99.90;;;;;;5002415;28;20215;-77
2021/06/08 04:42:47;;;;;;;8.20;6.27;;;16.40;99.90;;;;;;5010666;28;20211;-77
2021/06/08 04:45:15;;;;;;;6.87;5.80;;;16.50;99.90;;;;;;5019243;28;20205;-78
2021/06/08 04:47:43;;;;;;;8.90;6.93;;;16.50;99.90;;;;;;5001592;28;20203;-78
2021/06/08 04:50:13;;;;;;;7.37;6.33;;;16.50;99.90;;;;;;4994531;28;20244;-78
2021/06/08 04:52:42;;;;;;;6.97;5.83;;;16.50;99.90;;;;;;5029106;28;20262;-77
2021/06/08 04:55:10;;;;;;;6.73;6.03;;;16.60;99.90;;;;;;4997906;28;20636;-77
2021/06/08 04:57:38;;;;;;;7.30;5.57;;;16.80;1.00;;;;;;5010551;28;20200;-78
2021/06/08 05:00:10;;;;;;;8.63;6.87;;;16.90;1.00;;;;;;5009138;28;20208;-78
2021/06/08 05:03:03;;;;;;;9.87;6.37;;;16.90;99.90;;;;;;5013233;28;20280;-79
2021/06/08 05:05:32;;;;;;;9.30;6.43;;;16.90;99.90;;;;;;5011559;28;20255;-77
2021/06/08 05:08:32;;;;;;;11.00;6.60;;;16.90;99.90;;;;;;4994310;28;20215;-77
2021/06/08 05:11:42;;;;;;;6.80;6.10;;;17.10;1.00;;;;;;5022578;28;20286;-77
2021/06/08 05:14:12;;;;;;;7.43;6.00;;;17.10;99.90;;;;;;5008793;28;20238;-78
2021/06/08 05:16:40;;;;;;;7.67;6.30;;;17.30;1.00;;;;;;5013454;28;20204;-78
2021/06/08 05:19:10;;;;;;;7.63;5.97;;;17.40;1.00;;;;;;4993539;28;20318;-78
2021/06/08 05:21:40;;;;;;;9.20;6.17;;;17.50;1.00;;;;;;5027316;28;20284;-78
2021/06/08 05:24:13;;;;;;;7.57;5.70;;;17.60;1.00;;;;;;5014893;28;20200;-78
2021/06/08 05:26:45;;;;;;;6.50;5.80;;;17.60;1.00;;;;;;5009853;28;20196;-77
2021/06/08 05:29:17;;;;;;;7.63;6.40;;;17.60;99.90;;;;;;5012211;28;20227;-78
2021/06/08 05:31:45;;;;;;;7.37;5.93;;;17.90;99.90;;;;;;5014494;28;20225;-77
2021/06/08 05:34:14;;;;;;;14.37;6.40;;;17.80;1.00;;;;;;5010532;28;20208;-78
2021/06/08 05:36:42;;;;;;;11.17;6.40;;;18.10;1.00;;;;;;5017138;28;20202;-78
2021/06/08 05:39:10;;;;;;;8.67;5.93;;;18.30;1.00;;;;;;4999091;28;20551;-79
2021/06/08 05:41:37;;;;;;;6.27;5.47;;;17.90;1.00;;;;;;5001595;28;20200;-79
2021/06/08 05:44:05;;;;;;;10.97;6.40;;;18.20;1.00;;;;;;5003784;28;20836;-79
2021/06/08 05:46:33;;;;;;;7.10;5.43;;;18.20;99.90;;;;;;5021525;28;20688;-79
2021/06/08 05:49:01;;;;;;;6.13;5.30;;;18.40;1.00;;;;;;4997467;28;20223;-78
2021/06/08 05:51:33;;;;;;;5.97;4.83;;;18.50;1.00;;;;;;5017523;28;20597;-80
2021/06/08 05:54:01;;;;;;;7.80;5.97;;;18.50;1.00;;;;;;5016069;28;20265;-78
2021/06/08 05:56:34;;;;;;;7.83;5.60;;;18.50;4.60;;;;;;4995090;28;20295;-78
2021/06/08 05:59:02;;;;;;;6.87;5.57;;;18.50;10.90;;;;;;5006879;28;20640;-78
2021/06/08 06:01:30;;;;;;;6.87;5.50;;;18.60;1.00;;;;;;5013578;28;20568;-78
2021/06/08 06:03:58;;;;;;;8.03;5.33;;;18.60;99.90;;;;;;5020400;28;20307;-78
2021/06/08 06:06:26;;;;;;;5.70;5.10;;;18.60;1.00;;;;;;5026504;28;20200;-78
2021/06/08 06:08:54;;;;;;;6.90;5.37;;;18.70;1.00;;;;;;5005016;28;20241;-79
2021/06/08 06:11:22;;;;;;;7.17;5.47;;;18.70;99.90;;;;;;4998093;28;20201;-78
2021/06/08 06:14:00;;;;;;;5.80;5.10;;;18.80;1.00;;;;;;5016968;28;20205;-79
2021/06/08 06:16:30;;;;;;;5.13;4.57;;;18.90;1.00;;;;;;5012300;28;20277;-78
2021/06/08 06:19:00;;;;;;;8.13;5.47;;;19.00;1.00;;;;;;5019267;28;20267;-78
2021/06/08 06:21:28;;;;;;;7.30;5.17;;;19.10;99.90;;;;;;4997943;28;20212;-78
2021/06/08 06:23:55;;;;;;;6.63;4.67;;;19.00;99.90;;;;;;5004602;28;20232;-79
2021/06/08 06:26:25;;;;;;;6.37;4.80;;;19.10;34.10;;;;;;5019372;28;20665;-78
2021/06/08 06:28:53;;;;;;;5.30;4.20;;;19.30;1.00;;;;;;5015506;28;20290;-77
2021/06/08 06:31:20;;;;;;;5.50;4.33;;;19.50;1.00;;;;;;5014245;28;20216;-77
2021/06/08 06:33:52;;;;;;;6.50;4.77;;;19.50;1.00;;;;;;5016904;28;20200;-77
2021/06/08 06:36:21;;;;;;;5.60;4.33;;;19.60;1.00;;;;;;5002733;28;20243;-78
2021/06/08 06:38:51;;;;;;;6.40;4.27;;;19.70;1.00;;;;;;5018349;28;20201;-77
2021/06/08 06:41:19;;;;;;;4.87;4.30;;;20.10;1.00;;;;;;5015824;28;20733;-77
2021/06/08 06:43:53;;;;;;;6.53;4.60;;;20.20;1.00;;;;;;5030337;28;20204;-78
2021/06/08 06:46:22;;;;;;;6.80;4.37;;;20.40;1.00;;;;;;5036506;28;20205;-79
2021/06/08 06:48:53;;;;;;;5.47;4.40;;;20.40;1.00;;;;;;4996850;28;20228;-79
2021/06/08 06:51:21;;;;;;;4.17;3.67;;;20.30;1.00;;;;;;5019647;28;20224;-77
2021/06/08 06:53:49;;;;;;;5.87;4.53;;;20.30;1.00;;;;;;5014008;28;20249;-78
2021/06/08 06:56:18;;;;;;;4.83;4.17;;;20.70;1.00;;;;;;4993534;28;20203;-76
2021/06/08 06:58:45;;;;;;;4.53;4.00;;;20.90;99.90;;;;;;5011999;28;20264;-77
2021/06/08 07:01:13;;;;;;;7.73;4.50;;;21.00;99.90;;;;;;5018051;28;20232;-77
2021/06/08 07:03:41;;;;;;;7.43;5.57;;;20.80;99.90;;;;;;5016361;28;20640;-77
2021/06/08 07:06:10;;;;;;;6.33;4.60;;;21.00;99.90;;;;;;5033945;28;20245;-77
2021/06/08 07:08:38;;;;;;;7.97;4.97;;;21.00;99.90;;;;;;5012272;28;20236;-76
2021/06/08 07:11:06;;;;;;;7.33;3.97;;;21.30;99.90;;;;;;5017672;28;20280;-76
2021/06/08 07:13:33;;;;;;;5.00;4.33;;;21.50;99.90;;;;;;4991713;28;20246;-76
2021/06/08 07:16:00;;;;;;;6.83;4.10;;;21.60;99.90;;;;;;5001170;28;20193;-77
2021/06/08 07:18:28;;;;;;;4.60;3.47;;;21.90;99.90;;;;;;4998956;28;20220;-79
2021/06/08 07:20:57;;;;;;;6.13;3.87;;;21.90;99.90;;;;;;5013088;28;20235;-79
2021/06/08 07:23:25;;;;;;;4.03;3.63;;;22.00;99.90;;;;;;4988497;28;20600;-79
2021/06/08 07:25:52;;;;;;;5.33;3.47;;;22.20;99.90;;;;;;5024630;28;20200;-80
2021/06/08 07:28:20;;;;;;;4.30;3.80;;;22.20;99.90;;;;;;5015653;28;20311;-79
2021/06/08 07:30:50;;;;;;;6.43;3.85;;;22.40;99.90;;;;;;5001270;28;20940;-81
2021/06/08 07:33:53;;;;;;;3.33;3.03;;;22.70;99.90;;;;;;5018737;28;20287;-80
2021/06/08 07:36:28;;;;;;;5.23;2.93;;;23.90;99.90;;;;;;5014803;28;20212;-80
2021/06/08 07:39:06;;;;;;;5.20;3.20;;;24.40;99.90;;;;;;5021757;28;20209;-79
2021/06/08 07:41:44;;;;;;;3.70;2.70;;;24.50;99.90;;;;;;5027724;28;20576;-79
2021/06/08 07:44:26;;;;;;;4.53;2.17;;;25.90;99.90;;;;;;5017079;28;20206;-80
2021/06/08 07:46:56;;;;;;;5.00;2.47;;;26.60;99.90;;;;;;5015766;28;20274;-80
2021/06/08 07:49:24;;;;;;;3.40;2.80;;;26.90;99.90;;;;;;5037678;28;20236;-80
2021/06/08 07:51:51;;;;;;;3.30;3.00;;;26.90;99.90;;;;;;5016362;28;20201;-80
2021/06/08 07:54:22;;;;;;;3.00;2.50;;;26.80;99.90;;;;;;5016035;28;20227;-79
2021/06/08 07:56:51;;;;;;;3.30;2.90;;;26.10;99.90;;;;;;5016769;28;20570;-80
2021/06/08 07:59:19;;;;;;;4.17;2.70;;;26.10;99.90;;;;;;5036179;28;20342;-80
2021/06/08 08:01:46;;;;;;;3.83;3.30;;;26.90;99.90;;;;;;5038335;28;20275;-80
2021/06/08 08:04:20;;;;;;;3.03;2.17;;;25.50;99.90;;;;;;5017301;28;20216;-80
2021/06/08 08:06:52;;;;;;;2.60;1.80;;;27.00;99.90;;;;;;5015132;28;20266;-81
2021/06/08 08:09:20;;;;;;;2.47;1.53;;;28.10;99.90;;;;;;5014643;28;20236;-80
2021/06/08 08:11:51;;;;;;;2.33;1.70;;;28.70;99.90;;;;;;5032313;28;20228;-81
2021/06/08 08:14:22;;;;;;;2.70;2.10;;;28.10;99.90;;;;;;5013340;28;20288;-81
2021/06/08 08:16:49;;;;;;;2.43;1.80;;;27.90;99.90;;;;;;5016406;28;20220;-80
2021/06/08 08:19:18;;;;;;;2.83;1.90;;;27.50;99.90;;;;;;5010142;28;20261;-80
2021/06/08 08:21:46;;;;;;;3.10;1.60;;;28.10;99.90;;;;;;5006672;28;20639;-79
2021/06/08 08:24:13;;;;;;;2.83;1.33;;;27.30;99.90;;;;;;4999935;28;20205;-79
2021/06/08 08:26:41;;;;;;;2.53;2.17;;;28.20;99.90;;;;;;4977733;28;20255;-79
2021/06/08 08:29:08;;;;;;;2.33;2.10;;;28.50;99.90;;;;;;4981580;28;20249;-79
2021/06/08 08:31:37;;;;;;;4.37;2.70;;;28.70;99.90;;;;;;5012049;28;20232;-79
2021/06/08 08:34:05;;;;;;;3.63;2.72;;;28.40;99.90;;;;;;5000390;28;20800;-78
2021/06/08 08:36:37;;;;;;;3.17;2.30;;;28.70;99.90;;;;;;4992522;28;20202;-79
2021/06/08 08:39:09;;;;;;;1.95;1.75;;;28.80;99.90;;;;;;4998206;28;20654;-79
2021/06/08 08:41:37;;;;;;;2.15;1.90;;;29.30;99.90;;;;;;4995077;28;20235;-80
2021/06/08 08:44:06;;;;;;;2.35;2.15;;;30.20;99.90;;;;;;5004542;28;20205;-79
2021/06/08 08:46:48;;;;;;;2.90;2.20;;;30.10;99.90;;;;;;4967913;28;20289;-79
2021/06/08 08:49:15;;;;;;;3.22;1.90;;;29.20;97.30;;;;;;4977189;28;20243;-79
2021/06/08 08:51:43;;;;;;;3.53;1.73;;;29.90;99.90;;;;;;4984771;28;20208;-79
2021/06/08 08:54:12;;;;;;;3.35;1.67;;;29.70;94.30;;;;;;4989816;28;20220;-78
2021/06/08 08:56:41;;;;;;;2.38;1.90;;;28.20;87.40;;;;;;4993994;28;20281;-79
2021/06/08 08:59:15;;;;;;;2.50;1.75;;;28.70;86.70;;;;;;4982437;28;20643;-79
2021/06/08 09:01:45;;;;;;;2.05;1.65;;;29.10;90.70;;;;;;5017022;28;20199;-79
2021/06/08 09:04:13;;;;;;;2.20;2.00;;;29.10;91.80;;;;;;5003051;28;20200;-79
2021/06/08 09:06:40;;;;;;;2.30;1.00;;;29.00;90.40;;;;;;5003031;28;20204;-79
2021/06/08 09:09:09;;;;;;;1.00;0.90;;;28.90;88.00;;;;;;4991815;28;20208;-79
2021/06/08 09:11:40;;;;;;;3.75;1.50;;;29.70;89.80;;;;;;4998218;28;20206;-78
2021/06/08 09:14:10;;;;;;;2.00;1.40;;;28.90;81.10;;;;;;4999716;28;20204;-80
2021/06/08 09:16:37;;;;;;;2.60;1.70;;;28.30;73.40;;;;;;5012365;28;20205;-79
2021/06/08 09:19:05;;;;;;;2.37;1.70;;;27.30;76.90;;;;;;5007362;28;20200;-79
2021/06/08 09:21:33;;;;;;;2.40;1.63;;;28.30;82.70;;;;;;5006563;28;20244;-79
2021/06/08 09:24:21;;;;;;;2.50;1.37;;;29.20;85.10;;;;;;5028729;28;20255;-79
2021/06/08 09:27:10;;;;;;;2.07;1.50;;;29.90;87.60;;;;;;5018336;28;20231;-80
2021/06/08 09:29:43;;;;;;;2.00;1.50;;;28.90;78.50;;;;;;5012567;28;20318;-80
2021/06/08 09:32:24;;;;;;;4.90;1.70;;;28.20;79.60;;;;;;5015099;28;20319;-79
2021/06/08 09:34:57;;;;;;;3.67;1.40;;;28.70;89.90;;;;;;5011376;28;22399;-79
2021/06/08 09:37:41;;;;;;;1.73;1.50;;;29.20;90.80;;;;;;5030763;28;21271;-79
2021/06/08 09:40:22;;;;;;;1.87;1.60;;;29.60;86.10;;;;;;5003367;28;20231;-79
2021/06/08 09:43:01;;;;;;;1.40;1.30;;;29.20;99.90;;;;;;4988765;28;20243;-78
2021/06/08 09:45:38;;;;;;;1.90;1.70;;;29.00;78.20;;;;;;5021132;28;20228;-78
2021/06/08 09:48:05;;;;;;;1.93;1.40;;;28.00;76.40;;;;;;4992423;28;20231;-79
2021/06/08 09:50:41;;;;;;;2.17;1.20;;;28.40;70.00;;;;;;4997649;28;20240;-80
2021/06/08 09:53:16;;;;;;;1.50;1.40;;;28.90;70.60;;;;;;5014206;28;20270;-80
2021/06/08 09:56:04;;;;;;;1.70;1.40;;;27.60;63.80;;;;;;5002108;28;20220;-80
2021/06/08 09:58:33;;;;;;;2.63;1.57;;;27.60;64.40;;;;;;5033616;28;20189;-78
2021/06/08 10:01:33;;;;;;;2.37;1.67;;;28.10;69.00;;;;;;5030417;28;20304;-80
2021/06/08 10:04:03;;;;;;;2.43;1.90;;;28.00;65.50;;;;;;5034832;28;20245;-79
2021/06/08 10:06:38;;;;;;;5.03;1.93;;;26.90;61.10;;;;;;5017893;28;20279;-79
2021/06/08 10:09:15;;;;;;;2.17;1.93;;;27.70;69.60;;;;;;5018597;28;20211;-79
2021/06/08 10:11:44;;;;;;;1.67;1.40;;;28.10;67.30;;;;;;5003897;28;20671;-79
2021/06/08 10:14:18;;;;;;;4.43;1.67;;;28.40;69.90;;;;;;5018879;28;20204;-79
2021/06/08 10:16:57;;;;;;;1.67;1.20;;;28.70;74.00;;;;;;5023421;28;20288;-79
2021/06/08 10:19:25;;;;;;;1.73;1.23;;;28.70;71.70;;;;;;5002915;28;20211;-79
2021/06/08 10:21:54;;;;;;;3.35;1.75;;;28.50;71.10;;;;;;4998149;28;20294;-79
2021/06/08 10:24:27;;;;;;;3.08;1.40;;;28.40;74.10;;;;;;4997607;28;20197;-78
2021/06/08 10:26:56;;;;;;;1.63;1.20;;;29.10;79.80;;;;;;4999759;28;20197;-79
2021/06/08 10:29:27;;;;;;;3.50;2.88;;;29.50;79.80;;;;;;4998311;28;20197;-79
2021/06/08 10:31:57;;;;;;;3.97;3.17;;;29.40;78.00;;;;;;4989653;28;20229;-79
2021/06/08 10:34:37;;;;;;;3.63;2.67;;;27.70;76.10;;;;;;5012145;28;20278;-80
2021/06/08 10:37:05;;;;;;;2.67;2.10;;;28.10;77.60;;;;;;4995905;28;20575;-80
2021/06/08 10:39:34;;;;;;;2.13;1.80;;;28.00;75.60;;;;;;4969466;28;20264;-81
2021/06/08 10:42:02;;;;;;;3.10;2.55;;;28.70;79.20;;;;;;4997362;28;20248;-81
2021/06/08 10:44:29;;;;;;;3.25;2.70;;;28.20;77.70;;;;;;4999733;28;20270;-81
2021/06/08 10:47:07;;;;;;;4.03;3.03;;;27.80;79.30;;;;;;5005550;28;20202;-82
2021/06/08 10:49:39;;;;;;;4.20;2.97;;;27.50;75.20;;;;;;5004202;28;20609;-82
2021/06/08 10:52:12;;;;;;;3.53;2.63;;;27.40;74.40;;;;;;5021548;28;20205;-82
2021/06/08 10:54:40;;;;;;;5.93;3.53;;;28.60;82.70;;;;;;4997275;28;20256;-81
2021/06/08 10:57:13;;;;;;;5.07;2.67;;;27.60;79.90;;;;;;4984808;28;20217;-81
2021/06/08 10:59:51;;;;;;;3.90;3.20;;;28.60;80.50;;;;;;5003939;28;20258;-81
2021/06/08 11:02:40;;;;;;;3.53;2.87;;;28.80;80.70;;;;;;5003289;28;20630;-81
2021/06/08 11:05:07;;;;;;;3.28;2.85;;;29.40;99.90;;;;;;5000880;28;20295;-81
2021/06/08 11:07:51;;;;;;;4.38;3.42;;;29.20;79.20;;;;;;4998456;28;20656;-81
2021/06/08 11:10:30;;;;;;;3.00;2.60;;;27.40;70.10;;;;;;4996534;28;20267;-80
2021/06/08 11:13:09;;;;;;;3.85;2.75;;;28.70;77.90;;;;;;5005652;28;20229;-80
2021/06/08 11:15:38;;;;;;;4.07;3.67;;;28.40;75.70;;;;;;4996242;28;20577;-81
2021/06/08 11:18:17;;;;;;;4.20;2.55;;;28.70;76.30;;;;;;5017968;28;20536;-81
2021/06/08 11:20:57;;;;;;;3.90;3.20;;;29.20;79.20;;;;;;5031679;28;20365;-80
2021/06/08 11:23:42;;;;;;;4.32;3.47;;;28.70;73.90;;;;;;5018182;28;20205;-81
2021/06/08 11:26:17;;;;;;;3.28;2.97;;;28.50;75.00;;;;;;5016288;28;20209;-81
2021/06/08 11:28:46;;;;;;;4.00;2.72;;;29.60;80.60;;;;;;5017179;28;20325;-80
2021/06/08 11:31:15;;;;;;;2.92;2.63;;;30.20;83.80;;;;;;5032723;28;20591;-80
2021/06/08 11:33:44;;;;;;;3.45;2.90;;;30.10;84.70;;;;;;4988418;28;20223;-80
2021/06/08 11:36:22;;;;;;;4.53;3.38;;;30.50;82.50;;;;;;5020370;28;20265;-80
2021/06/08 11:38:54;;;;;;;3.90;3.50;;;30.20;79.80;;;;;;5017768;28;20193;-80
2021/06/08 11:41:21;;;;;;;3.95;3.08;;;29.60;83.70;;;;;;5019119;28;20254;-80
2021/06/08 11:43:52;;;;;;;4.38;3.50;;;30.00;87.90;;;;;;5037905;28;20193;-80
2021/06/08 11:46:28;;;;;;;5.78;3.83;;;30.60;88.60;;;;;;5017026;28;20209;-80
2021/06/08 11:49:12;;;;;;;5.20;3.70;;;30.20;86.20;;;;;;5039961;28;20268;-81
2021/06/08 11:51:39;;;;;;;2.38;1.83;;;29.20;81.10;;;;;;5023332;28;20216;-80
2021/06/08 11:54:30;;;;;;;3.73;3.00;;;29.50;76.10;;;;;;5021388;28;20209;-80
2021/06/08 11:57:03;;;;;;;3.30;2.70;;;29.10;75.50;;;;;;5019203;28;20239;-81
2021/06/08 11:59:32;;;;;;;3.13;2.37;;;28.70;75.60;;;;;;5016442;28;20292;-80
2021/06/08 12:02:02;;;;;;;3.60;3.30;;;28.90;71.60;;;;;;5013341;28;20192;-81
2021/06/08 12:04:31;;;;;;;4.47;2.63;;;28.80;72.60;;;;;;5024121;28;20385;-80
2021/06/08 12:07:01;;;;;;;4.80;3.57;;;30.00;80.20;;;;;;5015329;28;20197;-81
2021/06/08 12:09:29;;;;;;;3.87;2.43;;;29.40;77.50;;;;;;5017394;28;20616;-80
2021/06/08 12:11:57;;;;;;;2.93;2.63;;;29.10;78.40;;;;;;5033271;28;20228;-80
2021/06/08 12:14:25;;;;;;;4.57;2.47;;;28.70;73.90;;;;;;5017464;28;20648;-80
2021/06/08 12:16:57;;;;;;;2.93;2.13;;;30.10;82.60;;;;;;5033292;28;20238;-80
2021/06/08 12:19:27;;;;;;;3.10;2.53;;;30.50;82.00;;;;;;5021572;28;20196;-80
2021/06/08 12:21:59;;;;;;;4.43;3.27;;;29.70;80.00;;;;;;5016073;28;20241;-81
2021/06/08 12:24:27;;;;;;;4.03;3.63;;;30.00;77.80;;;;;;5040652;28;20204;-81
2021/06/08 12:27:00;;;;;;;3.20;2.87;;;29.60;73.70;;;;;;5008897;28;20534;-80
2021/06/08 12:29:28;;;;;;;3.93;2.70;;;29.70;78.50;;;;;;5042697;28;20569;-80
2021/06/08 12:31:58;;;;;;;3.63;2.30;;;30.10;80.90;;;;;;5019806;28;20232;-80
2021/06/08 12:34:28;;;;;;;2.27;2.07;;;30.20;81.40;;;;;;5033024;28;20324;-80
2021/06/08 12:36:55;;;;;;;2.67;2.30;;;30.00;76.60;;;;;;5000483;28;20192;-81
2021/06/08 12:39:29;;;;;;;2.43;1.90;;;29.90;75.10;;;;;;4999307;28;20196;-81
2021/06/08 12:42:15;;;;;;;2.30;1.85;;;30.80;80.50;;;;;;5020315;28;20223;-81
2021/06/08 12:44:45;;;;;;;2.25;1.88;;;30.20;68.60;;;;;;5013214;28;20202;-80
2021/06/08 12:47:16;;;;;;;4.63;2.25;;;30.00;72.30;;;;;;5015868;28;20300;-80
2021/06/08 12:49:44;;;;;;;2.50;2.05;;;30.50;76.20;;;;;;5014408;28;20193;-80
2021/06/08 12:52:16;;;;;;;5.28;2.22;;;30.90;79.80;;;;;;5015301;28;20266;-80
2021/06/08 12:54:46;;;;;;;2.17;1.77;;;31.10;78.50;;;;;;5034619;28;20670;-81
2021/06/08 12:57:24;;;;;;;3.45;3.13;;;30.50;76.60;;;;;;5013633;28;20282;-81
2021/06/08 12:59:53;;;;;;;2.85;2.40;;;29.30;69.60;;;;;;5019295;28;20204;-81
2021/06/08 13:02:21;;;;;;;3.15;1.90;;;28.90;66.80;;;;;;5011738;28;20199;-81
2021/06/08 13:04:48;;;;;;;2.67;1.98;;;29.70;74.00;;;;;;5004830;28;20201;-80
2021/06/08 13:07:19;;;;;;;3.45;1.88;;;30.70;78.80;;;;;;5003537;28;20205;-80
2021/06/08 13:09:48;;;;;;;2.30;1.90;;;31.20;79.30;;;;;;5022261;28;20266;-81